Pagrindinis puslapis
METAR-TAF:

METAR-TAF

Oro uostai :

Librevilio oro uostas

Librevilis, Gabonas

platuma: 00-27N, ilguma: 009-25E, Aukštis: 12 m

Dabartinis oras

Ataskaita buvo paskelbta 30 minutes, ne 21:00 UTC
Vėjas 2 kt nuo kintamojo kryptimis
Temperatūra 27°C
Drėgmė 84%
Slėgis 1011 hPa
Matomumas 10 km arba daugiau
Mažai debesys ne aukštis 1300 ft
Mažai debesys ne aukštis 2000 ft, Liūtiniai kamuoliniai debesys.

METAR: FOOL 102100Z VRB02KT 9999 FEW013 FEW020CB 27/24 Q1011 TEMPO TS

Laikas: 22:30 (21:30 UTC)

Prognozė

Ataskaita buvo paskelbta 4 valandos ir 15 minutes, ne 17:15 UTC
Prognozė galioja nuo 10 metu 18 UTC su 11 metu 24 UTC
Vėjas 8 kt iš Pietų/Pietvakarių
Matomumas 10 km arba daugiau
Išsisklaidę debesys ne aukštis 1100 ft
Mažai debesys ne aukštis 1800 ft, Liūtiniai kamuoliniai debesys.
Su prošvaistėmis ne aukštis 3000 ft
Tikimybė 30% :
Laikinai
nuo 10 metu 20 UTC su 11 metu 02 UTC
Matomumas: 4000 m
perkūnija, lietus

TAF: FOOL 101715Z 1018/1124 21008KT 9999 SCT011 FEW018CB BKN030 PROB30 TEMPO 1020/1102 4000 TSRA

Orai ataskaitas ir orų prognozės (METAR, TAF).

turimą stotys yra geltonos ir raudonos taškus žemėlapyje.

Perkelti pele per norėdami pamatyti stoties vardą.

Tada spustelėkite, norėdami matyti oro stebėjimo ir prognozės.

Norėdami pakeisti žemėlapį: spustelėkite ant žalios mygtukų su juodo kryžiaus žemyn,; žalią mygtuką su brūkšneliu, jei norite nutolinti; arba žalių rodyklių gretimoms žemėlapius.


METAR-TAF: